sensor_id;sensor_type;location;lat;lon;timestamp;P1;durP1;ratioP1;P2;durP2;ratioP2
20170;SDS011;10245;51.344;6.620;2022-12-05T00:01:17;51.43;;;28.20;;
20170;SDS011;10245;51.344;6.620;2022-12-05T00:03:50;52.17;;;29.13;;
20170;SDS011;10245;51.344;6.620;2022-12-05T00:06:16;51.17;;;28.07;;
20170;SDS011;10245;51.344;6.620;2022-12-05T00:08:40;48.30;;;28.13;;
20170;SDS011;10245;51.344;6.620;2022-12-05T00:11:06;51.00;;;27.63;;
20170;SDS011;10245;51.344;6.620;2022-12-05T00:13:34;52.10;;;28.80;;
20170;SDS011;10245;51.344;6.620;2022-12-05T00:16:00;51.40;;;28.23;;
20170;SDS011;10245;51.344;6.620;2022-12-05T00:18:24;50.53;;;28.20;;
20170;SDS011;10245;51.344;6.620;2022-12-05T00:20:49;49.60;;;28.60;;
20170;SDS011;10245;51.344;6.620;2022-12-05T00:23:12;54.10;;;30.60;;
20170;SDS011;10245;51.344;6.620;2022-12-05T00:25:36;49.63;;;27.80;;
20170;SDS011;10245;51.344;6.620;2022-12-05T00:27:59;59.37;;;29.03;;
20170;SDS011;10245;51.344;6.620;2022-12-05T00:30:23;48.93;;;27.60;;
20170;SDS011;10245;51.344;6.620;2022-12-05T00:32:46;52.23;;;27.20;;
20170;SDS011;10245;51.344;6.620;2022-12-05T00:35:11;48.77;;;27.30;;
20170;SDS011;10245;51.344;6.620;2022-12-05T00:37:34;47.30;;;28.03;;
20170;SDS011;10245;51.344;6.620;2022-12-05T00:39:57;51.03;;;29.60;;
20170;SDS011;10245;51.344;6.620;2022-12-05T00:42:21;52.43;;;26.37;;
20170;SDS011;10245;51.344;6.620;2022-12-05T00:44:44;50.73;;;28.10;;
20170;SDS011;10245;51.344;6.620;2022-12-05T00:47:10;48.30;;;27.43;;
20170;SDS011;10245;51.344;6.620;2022-12-05T00:49:33;51.10;;;27.90;;
20170;SDS011;10245;51.344;6.620;2022-12-05T00:51:58;50.13;;;28.30;;
20170;SDS011;10245;51.344;6.620;2022-12-05T00:54:21;51.17;;;28.50;;
20170;SDS011;10245;51.344;6.620;2022-12-05T00:56:45;56.03;;;28.30;;
20170;SDS011;10245;51.344;6.620;2022-12-05T00:59:09;53.57;;;28.03;;
20170;SDS011;10245;51.344;6.620;2022-12-05T01:01:38;49.53;;;27.20;;
20170;SDS011;10245;51.344;6.620;2022-12-05T01:04:05;50.00;;;28.43;;
20170;SDS011;10245;51.344;6.620;2022-12-05T01:06:32;41.37;;;26.67;;
20170;SDS011;10245;51.344;6.620;2022-12-05T01:08:56;49.83;;;28.13;;
20170;SDS011;10245;51.344;6.620;2022-12-05T01:11:20;51.23;;;27.97;;
20170;SDS011;10245;51.344;6.620;2022-12-05T01:13:45;53.47;;;29.47;;
20170;SDS011;10245;51.344;6.620;2022-12-05T01:16:12;45.47;;;27.63;;
20170;SDS011;10245;51.344;6.620;2022-12-05T01:18:36;47.07;;;28.30;;
20170;SDS011;10245;51.344;6.620;2022-12-05T01:21:03;52.07;;;28.93;;
20170;SDS011;10245;51.344;6.620;2022-12-05T01:23:27;47.40;;;27.37;;
20170;SDS011;10245;51.344;6.620;2022-12-05T01:25:51;46.77;;;27.63;;
20170;SDS011;10245;51.344;6.620;2022-12-05T01:28:15;52.20;;;28.23;;
20170;SDS011;10245;51.344;6.620;2022-12-05T01:30:39;43.20;;;26.40;;
20170;SDS011;10245;51.344;6.620;2022-12-05T01:33:05;46.20;;;26.03;;
20170;SDS011;10245;51.344;6.620;2022-12-05T01:35:29;48.67;;;28.03;;
20170;SDS011;10245;51.344;6.620;2022-12-05T01:37:53;47.33;;;28.33;;
20170;SDS011;10245;51.344;6.620;2022-12-05T01:40:16;44.87;;;26.13;;
20170;SDS011;10245;51.344;6.620;2022-12-05T01:42:41;49.10;;;28.10;;
20170;SDS011;10245;51.344;6.620;2022-12-05T01:45:06;49.10;;;28.50;;
20170;SDS011;10245;51.344;6.620;2022-12-05T01:47:35;44.90;;;25.63;;
20170;SDS011;10245;51.344;6.620;2022-12-05T01:49:58;46.77;;;26.20;;
20170;SDS011;10245;51.344;6.620;2022-12-05T01:52:24;44.77;;;25.93;;
20170;SDS011;10245;51.344;6.620;2022-12-05T01:54:51;41.27;;;25.53;;
20170;SDS011;10245;51.344;6.620;2022-12-05T01:57:20;42.30;;;25.77;;
20170;SDS011;10245;51.344;6.620;2022-12-05T01:59:47;43.20;;;24.50;;
20170;SDS011;10245;51.344;6.620;2022-12-05T02:02:14;46.17;;;25.53;;
20170;SDS011;10245;51.344;6.620;2022-12-05T02:04:41;37.93;;;23.90;;
20170;SDS011;10245;51.344;6.620;2022-12-05T02:07:10;45.83;;;26.43;;
20170;SDS011;10245;51.344;6.620;2022-12-05T02:09:33;44.87;;;27.07;;
20170;SDS011;10245;51.344;6.620;2022-12-05T02:11:58;45.33;;;25.23;;
20170;SDS011;10245;51.344;6.620;2022-12-05T02:14:25;39.97;;;24.73;;
20170;SDS011;10245;51.344;6.620;2022-12-05T02:16:57;46.57;;;25.80;;
20170;SDS011;10245;51.344;6.620;2022-12-05T02:19:47;45.70;;;26.10;;
20170;SDS011;10245;51.344;6.620;2022-12-05T02:25:33;41.30;;;25.63;;
20170;SDS011;10245;51.344;6.620;2022-12-05T02:28:32;42.87;;;24.73;;
20170;SDS011;10245;51.344;6.620;2022-12-05T02:31:19;45.10;;;25.77;;
20170;SDS011;10245;51.344;6.620;2022-12-05T02:33:49;40.90;;;24.27;;
20170;SDS011;10245;51.344;6.620;2022-12-05T02:36:21;41.53;;;25.20;;
20170;SDS011;10245;51.344;6.620;2022-12-05T02:38:58;40.43;;;23.97;;
20170;SDS011;10245;51.344;6.620;2022-12-05T02:41:27;45.53;;;26.03;;
20170;SDS011;10245;51.344;6.620;2022-12-05T02:43:58;43.33;;;26.27;;
20170;SDS011;10245;51.344;6.620;2022-12-05T02:46:27;41.10;;;24.60;;
20170;SDS011;10245;51.344;6.620;2022-12-05T02:48:53;45.77;;;25.93;;
20170;SDS011;10245;51.344;6.620;2022-12-05T02:51:20;43.43;;;26.67;;
20170;SDS011;10245;51.344;6.620;2022-12-05T02:53:47;46.27;;;26.77;;
20170;SDS011;10245;51.344;6.620;2022-12-05T02:56:12;45.77;;;27.27;;
20170;SDS011;10245;51.344;6.620;2022-12-05T02:58:37;46.50;;;28.30;;
20170;SDS011;10245;51.344;6.620;2022-12-05T03:01:05;42.90;;;26.80;;
20170;SDS011;10245;51.344;6.620;2022-12-05T03:03:30;49.50;;;26.37;;
20170;SDS011;10245;51.344;6.620;2022-12-05T03:05:56;47.90;;;28.40;;
20170;SDS011;10245;51.344;6.620;2022-12-05T03:08:26;47.70;;;26.57;;
20170;SDS011;10245;51.344;6.620;2022-12-05T03:10:54;48.60;;;27.43;;
20170;SDS011;10245;51.344;6.620;2022-12-05T03:13:22;50.67;;;28.67;;
20170;SDS011;10245;51.344;6.620;2022-12-05T03:15:49;44.57;;;25.47;;
20170;SDS011;10245;51.344;6.620;2022-12-05T03:18:19;48.40;;;27.90;;
20170;SDS011;10245;51.344;6.620;2022-12-05T03:20:48;47.10;;;27.07;;
20170;SDS011;10245;51.344;6.620;2022-12-05T03:23:17;45.80;;;25.70;;
20170;SDS011;10245;51.344;6.620;2022-12-05T03:25:47;47.27;;;26.43;;
20170;SDS011;10245;51.344;6.620;2022-12-05T03:28:18;42.43;;;25.93;;
20170;SDS011;10245;51.344;6.620;2022-12-05T03:30:46;45.60;;;27.20;;
20170;SDS011;10245;51.344;6.620;2022-12-05T03:33:14;46.90;;;26.17;;
20170;SDS011;10245;51.344;6.620;2022-12-05T03:35:43;48.07;;;27.97;;
20170;SDS011;10245;51.344;6.620;2022-12-05T03:38:21;48.73;;;30.33;;
20170;SDS011;10245;51.344;6.620;2022-12-05T03:40:52;50.97;;;27.90;;
20170;SDS011;10245;51.344;6.620;2022-12-05T03:43:22;47.10;;;27.17;;
20170;SDS011;10245;51.344;6.620;2022-12-05T03:45:51;52.67;;;29.23;;
20170;SDS011;10245;51.344;6.620;2022-12-05T03:48:22;51.23;;;28.70;;
20170;SDS011;10245;51.344;6.620;2022-12-05T03:50:53;50.50;;;28.33;;
20170;SDS011;10245;51.344;6.620;2022-12-05T03:53:22;51.00;;;29.43;;
20170;SDS011;10245;51.344;6.620;2022-12-05T03:55:56;47.03;;;28.67;;
20170;SDS011;10245;51.344;6.620;2022-12-05T03:58:25;48.37;;;30.13;;
20170;SDS011;10245;51.344;6.620;2022-12-05T04:00:53;53.73;;;31.00;;
20170;SDS011;10245;51.344;6.620;2022-12-05T04:03:21;51.40;;;28.67;;
20170;SDS011;10245;51.344;6.620;2022-12-05T04:06:01;51.10;;;28.70;;
20170;SDS011;10245;51.344;6.620;2022-12-05T04:08:28;46.80;;;27.73;;
20170;SDS011;10245;51.344;6.620;2022-12-05T04:10:57;49.07;;;29.17;;
20170;SDS011;10245;51.344;6.620;2022-12-05T04:13:26;50.40;;;29.67;;
20170;SDS011;10245;51.344;6.620;2022-12-05T04:15:57;49.07;;;29.07;;
20170;SDS011;10245;51.344;6.620;2022-12-05T04:18:44;50.47;;;28.70;;
20170;SDS011;10245;51.344;6.620;2022-12-05T04:21:16;51.27;;;28.87;;
20170;SDS011;10245;51.344;6.620;2022-12-05T04:23:59;50.57;;;27.53;;
20170;SDS011;10245;51.344;6.620;2022-12-05T04:26:42;53.00;;;28.93;;
20170;SDS011;10245;51.344;6.620;2022-12-05T04:29:11;53.50;;;30.03;;
20170;SDS011;10245;51.344;6.620;2022-12-05T04:31:43;53.57;;;29.60;;
20170;SDS011;10245;51.344;6.620;2022-12-05T04:34:13;50.20;;;28.33;;
20170;SDS011;10245;51.344;6.620;2022-12-05T04:36:41;52.43;;;29.40;;
20170;SDS011;10245;51.344;6.620;2022-12-05T04:39:07;50.67;;;29.27;;
20170;SDS011;10245;51.344;6.620;2022-12-05T04:41:39;52.10;;;29.03;;
20170;SDS011;10245;51.344;6.620;2022-12-05T04:44:09;54.90;;;29.63;;
20170;SDS011;10245;51.344;6.620;2022-12-05T04:46:38;52.33;;;29.07;;
20170;SDS011;10245;51.344;6.620;2022-12-05T04:49:04;52.00;;;28.93;;
20170;SDS011;10245;51.344;6.620;2022-12-05T04:51:32;54.70;;;30.63;;
20170;SDS011;10245;51.344;6.620;2022-12-05T04:53:59;52.80;;;29.40;;
20170;SDS011;10245;51.344;6.620;2022-12-05T04:56:28;50.40;;;29.00;;
20170;SDS011;10245;51.344;6.620;2022-12-05T04:58:55;56.57;;;30.93;;
20170;SDS011;10245;51.344;6.620;2022-12-05T05:01:20;56.57;;;30.20;;
20170;SDS011;10245;51.344;6.620;2022-12-05T05:03:47;54.60;;;29.67;;
20170;SDS011;10245;51.344;6.620;2022-12-05T05:06:15;52.77;;;28.00;;
20170;SDS011;10245;51.344;6.620;2022-12-05T05:08:45;49.73;;;27.40;;
20170;SDS011;10245;51.344;6.620;2022-12-05T05:11:12;46.83;;;27.07;;
20170;SDS011;10245;51.344;6.620;2022-12-05T05:13:38;49.10;;;27.90;;
20170;SDS011;10245;51.344;6.620;2022-12-05T05:16:01;44.57;;;24.83;;
20170;SDS011;10245;51.344;6.620;2022-12-05T05:18:26;46.47;;;27.53;;
20170;SDS011;10245;51.344;6.620;2022-12-05T05:20:49;44.17;;;25.67;;
20170;SDS011;10245;51.344;6.620;2022-12-05T05:23:12;48.27;;;26.30;;
20170;SDS011;10245;51.344;6.620;2022-12-05T05:25:36;45.70;;;25.90;;
20170;SDS011;10245;51.344;6.620;2022-12-05T05:28:01;43.57;;;25.53;;
20170;SDS011;10245;51.344;6.620;2022-12-05T05:30:24;47.20;;;26.63;;
20170;SDS011;10245;51.344;6.620;2022-12-05T05:32:48;42.30;;;24.33;;
20170;SDS011;10245;51.344;6.620;2022-12-05T05:35:11;42.37;;;24.87;;
20170;SDS011;10245;51.344;6.620;2022-12-05T05:37:35;43.17;;;25.97;;
20170;SDS011;10245;51.344;6.620;2022-12-05T05:39:59;43.63;;;24.73;;
20170;SDS011;10245;51.344;6.620;2022-12-05T05:42:31;39.63;;;23.70;;
20170;SDS011;10245;51.344;6.620;2022-12-05T05:44:56;42.93;;;24.00;;
20170;SDS011;10245;51.344;6.620;2022-12-05T05:47:19;38.70;;;24.03;;
20170;SDS011;10245;51.344;6.620;2022-12-05T05:49:42;41.57;;;24.43;;
20170;SDS011;10245;51.344;6.620;2022-12-05T05:52:05;40.80;;;24.97;;
20170;SDS011;10245;51.344;6.620;2022-12-05T05:54:29;43.50;;;26.93;;
20170;SDS011;10245;51.344;6.620;2022-12-05T05:56:52;44.17;;;24.67;;
20170;SDS011;10245;51.344;6.620;2022-12-05T05:59:15;44.10;;;25.70;;
20170;SDS011;10245;51.344;6.620;2022-12-05T06:01:40;41.73;;;25.90;;
20170;SDS011;10245;51.344;6.620;2022-12-05T06:04:03;45.30;;;25.93;;
20170;SDS011;10245;51.344;6.620;2022-12-05T06:06:28;44.70;;;27.77;;
20170;SDS011;10245;51.344;6.620;2022-12-05T06:08:51;42.67;;;25.20;;
20170;SDS011;10245;51.344;6.620;2022-12-05T06:11:16;45.47;;;26.63;;
20170;SDS011;10245;51.344;6.620;2022-12-05T06:13:46;45.17;;;26.40;;
20170;SDS011;10245;51.344;6.620;2022-12-05T06:16:10;46.23;;;26.97;;
20170;SDS011;10245;51.344;6.620;2022-12-05T06:18:37;44.83;;;26.63;;
20170;SDS011;10245;51.344;6.620;2022-12-05T06:21:00;52.20;;;27.60;;
20170;SDS011;10245;51.344;6.620;2022-12-05T06:23:26;48.17;;;27.20;;
20170;SDS011;10245;51.344;6.620;2022-12-05T06:25:50;41.30;;;25.93;;
20170;SDS011;10245;51.344;6.620;2022-12-05T06:28:15;46.60;;;25.40;;
20170;SDS011;10245;51.344;6.620;2022-12-05T06:30:40;52.30;;;29.97;;
20170;SDS011;10245;51.344;6.620;2022-12-05T06:33:03;47.23;;;26.83;;
20170;SDS011;10245;51.344;6.620;2022-12-05T06:35:28;52.23;;;28.33;;
20170;SDS011;10245;51.344;6.620;2022-12-05T06:37:51;44.80;;;25.73;;
20170;SDS011;10245;51.344;6.620;2022-12-05T06:40:15;42.40;;;25.87;;
20170;SDS011;10245;51.344;6.620;2022-12-05T06:42:38;50.97;;;27.30;;
20170;SDS011;10245;51.344;6.620;2022-12-05T06:45:02;52.17;;;27.73;;
20170;SDS011;10245;51.344;6.620;2022-12-05T06:47:25;48.23;;;26.13;;
20170;SDS011;10245;51.344;6.620;2022-12-05T06:49:49;52.97;;;28.20;;
20170;SDS011;10245;51.344;6.620;2022-12-05T06:52:13;46.57;;;25.60;;
20170;SDS011;10245;51.344;6.620;2022-12-05T06:54:37;43.33;;;26.60;;
20170;SDS011;10245;51.344;6.620;2022-12-05T06:57:00;47.43;;;25.90;;
20170;SDS011;10245;51.344;6.620;2022-12-05T06:59:23;49.73;;;27.93;;
20170;SDS011;10245;51.344;6.620;2022-12-05T07:01:47;44.00;;;25.30;;
20170;SDS011;10245;51.344;6.620;2022-12-05T07:04:11;50.53;;;28.00;;
20170;SDS011;10245;51.344;6.620;2022-12-05T07:06:38;43.07;;;24.80;;
20170;SDS011;10245;51.344;6.620;2022-12-05T07:09:10;41.93;;;24.37;;
20170;SDS011;10245;51.344;6.620;2022-12-05T07:11:34;45.47;;;25.43;;
20170;SDS011;10245;51.344;6.620;2022-12-05T07:13:57;38.77;;;22.67;;
20170;SDS011;10245;51.344;6.620;2022-12-05T07:16:21;39.50;;;23.30;;
20170;SDS011;10245;51.344;6.620;2022-12-05T07:18:44;40.03;;;23.73;;
20170;SDS011;10245;51.344;6.620;2022-12-05T07:21:11;39.33;;;23.57;;
20170;SDS011;10245;51.344;6.620;2022-12-05T07:23:37;38.87;;;22.93;;
20170;SDS011;10245;51.344;6.620;2022-12-05T07:26:04;43.63;;;23.97;;
20170;SDS011;10245;51.344;6.620;2022-12-05T07:28:28;42.50;;;23.17;;
20170;SDS011;10245;51.344;6.620;2022-12-05T07:30:58;42.10;;;24.07;;
20170;SDS011;10245;51.344;6.620;2022-12-05T07:33:22;45.00;;;24.37;;
20170;SDS011;10245;51.344;6.620;2022-12-05T07:35:45;41.47;;;23.33;;
20170;SDS011;10245;51.344;6.620;2022-12-05T07:38:09;44.77;;;25.23;;
20170;SDS011;10245;51.344;6.620;2022-12-05T07:40:32;44.40;;;26.97;;
20170;SDS011;10245;51.344;6.620;2022-12-05T07:42:57;40.40;;;24.13;;
20170;SDS011;10245;51.344;6.620;2022-12-05T07:45:20;35.87;;;21.47;;
20170;SDS011;10245;51.344;6.620;2022-12-05T07:47:43;33.53;;;21.23;;
20170;SDS011;10245;51.344;6.620;2022-12-05T07:50:07;42.37;;;24.40;;
20170;SDS011;10245;51.344;6.620;2022-12-05T07:52:31;36.47;;;22.27;;
20170;SDS011;10245;51.344;6.620;2022-12-05T07:54:55;40.90;;;23.87;;
20170;SDS011;10245;51.344;6.620;2022-12-05T07:57:18;37.70;;;22.27;;
20170;SDS011;10245;51.344;6.620;2022-12-05T07:59:43;36.87;;;21.63;;
20170;SDS011;10245;51.344;6.620;2022-12-05T08:02:07;34.73;;;21.13;;
20170;SDS011;10245;51.344;6.620;2022-12-05T08:04:31;35.53;;;21.10;;
20170;SDS011;10245;51.344;6.620;2022-12-05T08:06:55;35.70;;;21.83;;
20170;SDS011;10245;51.344;6.620;2022-12-05T08:09:18;35.37;;;19.97;;
20170;SDS011;10245;51.344;6.620;2022-12-05T08:11:41;32.83;;;21.00;;
20170;SDS011;10245;51.344;6.620;2022-12-05T08:14:12;33.03;;;20.77;;
20170;SDS011;10245;51.344;6.620;2022-12-05T08:16:37;30.33;;;20.53;;
20170;SDS011;10245;51.344;6.620;2022-12-05T08:19:02;32.40;;;20.27;;
20170;SDS011;10245;51.344;6.620;2022-12-05T08:21:27;33.73;;;20.87;;
20170;SDS011;10245;51.344;6.620;2022-12-05T08:23:51;33.43;;;21.13;;
20170;SDS011;10245;51.344;6.620;2022-12-05T08:26:15;39.17;;;22.23;;
20170;SDS011;10245;51.344;6.620;2022-12-05T08:28:41;30.97;;;20.33;;
20170;SDS011;10245;51.344;6.620;2022-12-05T08:31:06;38.57;;;22.47;;
20170;SDS011;10245;51.344;6.620;2022-12-05T08:33:33;32.83;;;21.30;;
20170;SDS011;10245;51.344;6.620;2022-12-05T08:35:58;33.20;;;21.73;;
20170;SDS011;10245;51.344;6.620;2022-12-05T08:38:23;29.90;;;20.57;;
20170;SDS011;10245;51.344;6.620;2022-12-05T08:40:46;30.63;;;19.57;;
20170;SDS011;10245;51.344;6.620;2022-12-05T08:43:10;35.23;;;20.77;;
20170;SDS011;10245;51.344;6.620;2022-12-05T08:45:33;29.07;;;19.27;;
20170;SDS011;10245;51.344;6.620;2022-12-05T08:47:56;32.87;;;19.77;;
20170;SDS011;10245;51.344;6.620;2022-12-05T08:50:21;30.77;;;20.00;;
20170;SDS011;10245;51.344;6.620;2022-12-05T08:52:44;32.20;;;18.20;;
20170;SDS011;10245;51.344;6.620;2022-12-05T08:55:08;30.17;;;20.10;;
20170;SDS011;10245;51.344;6.620;2022-12-05T08:57:31;35.53;;;20.77;;
20170;SDS011;10245;51.344;6.620;2022-12-05T08:59:54;33.97;;;19.63;;
20170;SDS011;10245;51.344;6.620;2022-12-05T09:02:19;29.97;;;18.87;;
20170;SDS011;10245;51.344;6.620;2022-12-05T09:04:42;30.10;;;19.07;;
20170;SDS011;10245;51.344;6.620;2022-12-05T09:07:14;28.17;;;19.33;;
20170;SDS011;10245;51.344;6.620;2022-12-05T09:09:37;30.90;;;18.87;;
20170;SDS011;10245;51.344;6.620;2022-12-05T09:12:00;31.37;;;19.10;;
20170;SDS011;10245;51.344;6.620;2022-12-05T09:14:24;30.47;;;19.90;;
20170;SDS011;10245;51.344;6.620;2022-12-05T09:16:52;27.90;;;19.73;;
20170;SDS011;10245;51.344;6.620;2022-12-05T09:19:16;26.03;;;18.00;;
20170;SDS011;10245;51.344;6.620;2022-12-05T09:21:43;27.53;;;18.87;;
20170;SDS011;10245;51.344;6.620;2022-12-05T09:24:09;28.00;;;19.43;;
20170;SDS011;10245;51.344;6.620;2022-12-05T09:26:33;30.47;;;19.30;;
20170;SDS011;10245;51.344;6.620;2022-12-05T09:28:57;29.77;;;19.77;;
20170;SDS011;10245;51.344;6.620;2022-12-05T09:31:21;25.87;;;18.07;;
20170;SDS011;10245;51.344;6.620;2022-12-05T09:33:48;28.87;;;18.80;;
20170;SDS011;10245;51.344;6.620;2022-12-05T09:36:13;28.07;;;18.67;;
20170;SDS011;10245;51.344;6.620;2022-12-05T09:38:38;29.47;;;19.00;;
20170;SDS011;10245;51.344;6.620;2022-12-05T09:41:04;25.80;;;18.57;;
20170;SDS011;10245;51.344;6.620;2022-12-05T09:43:43;30.97;;;20.10;;
20170;SDS011;10245;51.344;6.620;2022-12-05T09:46:14;30.47;;;20.30;;
20170;SDS011;10245;51.344;6.620;2022-12-05T09:48:55;25.40;;;17.43;;
20170;SDS011;10245;51.344;6.620;2022-12-05T09:51:20;23.80;;;16.60;;
20170;SDS011;10245;51.344;6.620;2022-12-05T09:53:44;28.70;;;18.40;;
20170;SDS011;10245;51.344;6.620;2022-12-05T09:56:12;25.00;;;18.00;;
20170;SDS011;10245;51.344;6.620;2022-12-05T09:58:45;27.33;;;18.40;;
20170;SDS011;10245;51.344;6.620;2022-12-05T10:01:15;24.30;;;16.93;;
20170;SDS011;10245;51.344;6.620;2022-12-05T10:03:54;23.33;;;17.40;;
20170;SDS011;10245;51.344;6.620;2022-12-05T10:06:54;27.70;;;18.40;;
20170;SDS011;10245;51.344;6.620;2022-12-05T10:09:30;29.10;;;18.73;;
20170;SDS011;10245;51.344;6.620;2022-12-05T10:12:09;28.43;;;19.00;;
20170;SDS011;10245;51.344;6.620;2022-12-05T10:14:44;25.77;;;17.63;;
20170;SDS011;10245;51.344;6.620;2022-12-05T10:17:21;27.77;;;18.60;;
20170;SDS011;10245;51.344;6.620;2022-12-05T10:19:50;29.57;;;19.93;;
20170;SDS011;10245;51.344;6.620;2022-12-05T10:22:18;32.90;;;22.07;;
20170;SDS011;10245;51.344;6.620;2022-12-05T10:24:48;33.87;;;22.60;;
20170;SDS011;10245;51.344;6.620;2022-12-05T10:27:19;49.30;;;27.57;;
20170;SDS011;10245;51.344;6.620;2022-12-05T10:29:46;47.80;;;28.53;;
20170;SDS011;10245;51.344;6.620;2022-12-05T10:32:21;53.73;;;30.30;;
20170;SDS011;10245;51.344;6.620;2022-12-05T10:34:51;43.27;;;28.27;;
20170;SDS011;10245;51.344;6.620;2022-12-05T10:37:22;40.63;;;26.30;;
20170;SDS011;10245;51.344;6.620;2022-12-05T10:39:46;36.10;;;23.77;;
20170;SDS011;10245;51.344;6.620;2022-12-05T10:42:11;30.83;;;21.17;;
20170;SDS011;10245;51.344;6.620;2022-12-05T10:44:40;27.13;;;19.30;;
20170;SDS011;10245;51.344;6.620;2022-12-05T10:47:04;27.80;;;18.23;;
20170;SDS011;10245;51.344;6.620;2022-12-05T10:49:27;25.03;;;16.70;;
20170;SDS011;10245;51.344;6.620;2022-12-05T10:51:52;25.33;;;17.57;;
20170;SDS011;10245;51.344;6.620;2022-12-05T10:54:16;32.40;;;20.90;;
20170;SDS011;10245;51.344;6.620;2022-12-05T10:56:43;36.90;;;22.93;;
20170;SDS011;10245;51.344;6.620;2022-12-05T10:59:10;33.57;;;22.33;;
20170;SDS011;10245;51.344;6.620;2022-12-05T11:01:37;40.20;;;24.27;;
20170;SDS011;10245;51.344;6.620;2022-12-05T11:04:09;43.20;;;25.43;;
20170;SDS011;10245;51.344;6.620;2022-12-05T11:06:48;46.03;;;27.03;;
20170;SDS011;10245;51.344;6.620;2022-12-05T11:09:16;41.73;;;25.30;;
20170;SDS011;10245;51.344;6.620;2022-12-05T11:11:42;37.43;;;23.37;;
20170;SDS011;10245;51.344;6.620;2022-12-05T11:14:20;41.90;;;24.87;;
20170;SDS011;10245;51.344;6.620;2022-12-05T11:16:52;43.10;;;26.00;;
20170;SDS011;10245;51.344;6.620;2022-12-05T11:19:21;45.60;;;26.90;;
20170;SDS011;10245;51.344;6.620;2022-12-05T11:21:49;39.87;;;25.50;;
20170;SDS011;10245;51.344;6.620;2022-12-05T11:24:19;39.87;;;23.33;;
20170;SDS011;10245;51.344;6.620;2022-12-05T11:26:44;36.40;;;23.10;;
20170;SDS011;10245;51.344;6.620;2022-12-05T11:29:19;45.27;;;26.57;;
20170;SDS011;10245;51.344;6.620;2022-12-05T11:31:56;48.73;;;26.87;;
20170;SDS011;10245;51.344;6.620;2022-12-05T11:34:20;43.63;;;27.17;;
20170;SDS011;10245;51.344;6.620;2022-12-05T11:36:48;49.37;;;28.70;;
20170;SDS011;10245;51.344;6.620;2022-12-05T11:39:16;49.63;;;27.97;;
20170;SDS011;10245;51.344;6.620;2022-12-05T11:41:45;49.50;;;29.10;;
20170;SDS011;10245;51.344;6.620;2022-12-05T11:47:41;55.10;;;30.47;;
20170;SDS011;10245;51.344;6.620;2022-12-05T11:50:26;54.23;;;29.47;;
20170;SDS011;10245;51.344;6.620;2022-12-05T11:53:02;55.90;;;29.70;;
20170;SDS011;10245;51.344;6.620;2022-12-05T11:55:48;55.67;;;29.93;;
20170;SDS011;10245;51.344;6.620;2022-12-05T11:58:25;53.40;;;29.63;;
20170;SDS011;10245;51.344;6.620;2022-12-05T12:01:17;60.67;;;31.33;;
20170;SDS011;10245;51.344;6.620;2022-12-05T12:03:59;60.37;;;30.97;;
20170;SDS011;10245;51.344;6.620;2022-12-05T12:06:42;55.77;;;30.80;;
20170;SDS011;10245;51.344;6.620;2022-12-05T12:09:23;62.27;;;31.17;;
20170;SDS011;10245;51.344;6.620;2022-12-05T12:12:01;59.63;;;30.27;;
20170;SDS011;10245;51.344;6.620;2022-12-05T12:14:38;56.13;;;29.53;;
20170;SDS011;10245;51.344;6.620;2022-12-05T12:17:10;52.83;;;27.80;;
20170;SDS011;10245;51.344;6.620;2022-12-05T12:22:44;54.70;;;29.03;;
20170;SDS011;10245;51.344;6.620;2022-12-05T12:25:19;48.27;;;27.00;;
20170;SDS011;10245;51.344;6.620;2022-12-05T12:27:55;50.30;;;28.17;;
20170;SDS011;10245;51.344;6.620;2022-12-05T12:30:31;54.13;;;28.20;;
20170;SDS011;10245;51.344;6.620;2022-12-05T12:33:08;47.47;;;27.47;;
20170;SDS011;10245;51.344;6.620;2022-12-05T12:35:51;42.93;;;25.70;;
20170;SDS011;10245;51.344;6.620;2022-12-05T12:38:25;36.80;;;22.00;;
20170;SDS011;10245;51.344;6.620;2022-12-05T12:41:16;37.73;;;22.63;;
20170;SDS011;10245;51.344;6.620;2022-12-05T12:43:59;37.20;;;23.03;;
20170;SDS011;10245;51.344;6.620;2022-12-05T12:46:38;35.33;;;21.87;;
20170;SDS011;10245;51.344;6.620;2022-12-05T12:49:17;37.67;;;23.03;;
20170;SDS011;10245;51.344;6.620;2022-12-05T12:51:56;33.77;;;20.43;;
20170;SDS011;10245;51.344;6.620;2022-12-05T12:57:25;25.60;;;16.73;;
20170;SDS011;10245;51.344;6.620;2022-12-05T12:59:56;24.83;;;16.70;;
20170;SDS011;10245;51.344;6.620;2022-12-05T13:02:29;23.03;;;16.77;;
20170;SDS011;10245;51.344;6.620;2022-12-05T13:04:59;20.97;;;14.93;;
20170;SDS011;10245;51.344;6.620;2022-12-05T13:07:30;20.00;;;14.83;;
20170;SDS011;10245;51.344;6.620;2022-12-05T13:10:02;20.90;;;14.67;;
20170;SDS011;10245;51.344;6.620;2022-12-05T13:12:36;18.83;;;13.13;;
20170;SDS011;10245;51.344;6.620;2022-12-05T13:15:02;22.47;;;15.37;;
20170;SDS011;10245;51.344;6.620;2022-12-05T13:17:29;18.90;;;14.33;;
20170;SDS011;10245;51.344;6.620;2022-12-05T13:19:54;22.30;;;15.80;;
20170;SDS011;10245;51.344;6.620;2022-12-05T13:22:18;22.00;;;16.23;;
20170;SDS011;10245;51.344;6.620;2022-12-05T13:24:45;22.40;;;15.97;;
20170;SDS011;10245;51.344;6.620;2022-12-05T13:27:13;20.23;;;15.73;;
20170;SDS011;10245;51.344;6.620;2022-12-05T13:29:40;21.50;;;16.20;;
20170;SDS011;10245;51.344;6.620;2022-12-05T13:32:22;23.37;;;15.40;;
20170;SDS011;10245;51.344;6.620;2022-12-05T13:34:49;22.43;;;15.40;;
20170;SDS011;10245;51.344;6.620;2022-12-05T13:37:18;23.97;;;15.93;;
20170;SDS011;10245;51.344;6.620;2022-12-05T13:40:04;21.57;;;16.20;;
20170;SDS011;10245;51.344;6.620;2022-12-05T13:42:59;21.83;;;15.87;;
20170;SDS011;10245;51.344;6.620;2022-12-05T13:45:24;21.63;;;15.47;;
20170;SDS011;10245;51.344;6.620;2022-12-05T13:47:50;18.90;;;14.77;;
20170;SDS011;10245;51.344;6.620;2022-12-05T13:50:26;20.47;;;15.80;;
20170;SDS011;10245;51.344;6.620;2022-12-05T13:52:57;24.23;;;15.90;;
20170;SDS011;10245;51.344;6.620;2022-12-05T13:55:25;19.87;;;14.70;;
20170;SDS011;10245;51.344;6.620;2022-12-05T13:57:56;20.07;;;14.60;;
20170;SDS011;10245;51.344;6.620;2022-12-05T14:00:25;22.80;;;15.63;;
20170;SDS011;10245;51.344;6.620;2022-12-05T14:02:58;17.57;;;13.70;;
20170;SDS011;10245;51.344;6.620;2022-12-05T14:05:37;21.17;;;15.43;;
20170;SDS011;10245;51.344;6.620;2022-12-05T14:11:26;19.67;;;14.37;;
20170;SDS011;10245;51.344;6.620;2022-12-05T14:13:49;18.70;;;14.27;;
20170;SDS011;10245;51.344;6.620;2022-12-05T14:19:24;19.67;;;14.03;;
20170;SDS011;10245;51.344;6.620;2022-12-05T14:25:47;20.63;;;14.90;;
20170;SDS011;10245;51.344;6.620;2022-12-05T14:28:47;18.17;;;13.50;;
20170;SDS011;10245;51.344;6.620;2022-12-05T14:31:31;18.33;;;13.13;;
20170;SDS011;10245;51.344;6.620;2022-12-05T14:34:17;16.13;;;13.30;;
20170;SDS011;10245;51.344;6.620;2022-12-05T14:36:50;18.33;;;13.73;;
20170;SDS011;10245;51.344;6.620;2022-12-05T14:39:20;18.97;;;14.53;;
20170;SDS011;10245;51.344;6.620;2022-12-05T14:41:54;17.03;;;13.13;;
20170;SDS011;10245;51.344;6.620;2022-12-05T14:44:20;22.93;;;16.00;;
20170;SDS011;10245;51.344;6.620;2022-12-05T14:46:44;27.63;;;18.37;;
20170;SDS011;10245;51.344;6.620;2022-12-05T14:52:17;23.77;;;16.83;;
20170;SDS011;10245;51.344;6.620;2022-12-05T14:54:43;21.13;;;15.50;;